Flight Track Log - Related Links

Times and Time Zones

All times are in EDT time to prevent confusion due to time zone crossing. See the DAL3672 flight status page for this flight to view local times or setup timezone preferences in your user account.

Time Position Orientation Groundspeed Altitude Reporting Facility
EDT Latitude Longitude Course Direction KTS MPH feet Rate Location/Type
Thu 12:49:50 PM 42.9167 -71.4167 270° West 153 176 1,000  Level KA90
Thu 12:51:01 PM 42.8756 -71.4711 224° Southwest 179 206 3,500 1,409 Climbing Boston Center
Thu 12:52:00 PM 42.9390 -71.8008 279° West  Level FlightAware Approximate
Thu 12:52:02 PM 42.9117 -71.5586 299° West 189 217 4,100  Level Boston Center
Thu 12:53:00 PM 42.9500 -71.9235 270° West  Level FlightAware Approximate
Thu 12:53:02 PM 42.9539 -71.6317 308° West 240 276 6,600  Level Boston Center
Thu 12:54:00 PM 42.9501 -72.0472 270° West  Level FlightAware Approximate
Thu 12:54:03 PM 43.0025 -71.7161 308° West 268 308 9,400  Level Boston Center
Thu 12:55:00 PM 42.9500 -72.1710 270° West  Level FlightAware Approximate
Thu 12:55:01 PM 43.0425 -71.7894 307° West 268 308 10,000  Level Boston Center
Thu 12:56:02 PM 43.0722 -71.9142 288° West 291 335 11,400 1,650 Climbing Boston Center
Thu 12:57:01 PM 43.0769 -72.0222 273° West 318 366 13,300 1,866 Climbing Boston Center
Thu 12:58:01 PM 43.0817 -72.1558 273° West 323 372 15,100 1,650 Climbing Boston Center
Thu 12:59:01 PM 43.0858 -72.2611 273° West 323 372 16,600 1,240 Climbing Boston Center
Thu 01:00:02 PM 43.0922 -72.4003 274° West 323 372 17,600 787 Climbing Boston Center
Thu 01:01:03 PM 43.0964 -72.5311 273° West 335 386 18,200 793 Climbing Boston Center
Thu 01:02:03 PM 43.1006 -72.6478 273° West 348 400 19,200 1,017 Climbing Boston Center
Thu 01:03:01 PM 43.1022 -72.7897 271° West 348 400 20,200 1,000 Climbing Boston Center
Thu 01:04:03 PM 43.1058 -72.9236 272° West 358 412 21,200 1,000 Climbing Boston Center
Thu 01:05:01 PM 43.1156 -73.0772 275° West 365 420 22,200 1,017 Climbing Boston Center
Thu 01:06:01 PM 43.1189 -73.2136 272° West 365 420 23,200 893 Climbing Boston Center
Thu 01:07:02 PM 43.1344 -73.3478 279° West 365 420 24,000 397 Climbing Boston Center
Thu 01:08:02 PM 43.1900 -73.4539 306° West 355 409 24,000  Level Boston Center
Thu 01:09:02 PM 43.2514 -73.5775 304° West 370 426 24,000 458 Level Boston Center
Thu 01:10:00 PM 43.2644 -73.7203 277° West 371 427 24,900 756 Climbing Boston Center
Thu 01:11:01 PM 43.2564 -73.8683 266° West 383 441 25,500 595 Climbing Boston Center
Thu 01:12:01 PM 43.2503 -74.0136 267° West 383 441 26,100 496 Climbing Boston Center
Thu 01:13:02 PM 43.2481 -74.1731 269° West 388 447 26,500 694 Climbing Boston Center
Thu 01:14:02 PM 43.2436 -74.3214 268° West 382 440 27,500 1,190 Climbing Boston Center
Thu 01:15:03 PM 43.2372 -74.4550 266° West 372 428 28,900 1,008 Climbing Boston Center
Thu 01:16:01 PM 43.2325 -74.5917 267° West 365 420 29,500 559 Climbing Boston Center
Thu 01:17:01 PM 43.2278 -74.7256 267° West 365 420 30,000 248 Climbing Boston Center
Thu 01:18:02 PM 43.2208 -74.8647 266° West 365 420 30,000  Level Boston Center
Thu 01:19:02 PM 43.2156 -75.0128 267° West 375 432 30,000  Level Boston Center
Thu 01:20:03 PM 43.2078 -75.1606 266° West 381 438 30,000  Level Boston Center
Thu 01:21:03 PM 43.2000 -75.3114 266° West 391 450 30,000  Level Boston Center
Thu 01:22:00 PM 43.1961 -75.4650 268° West 402 463 30,000 -51 Level Boston Center
Thu 01:23:01 PM 43.1897 -75.6183 267° West 402 463 29,900 -545 Descending Boston Center
Thu 01:24:01 PM 43.1833 -75.7719 267° West 402 463 28,900 -942 Descending Boston Center
Thu 01:25:02 PM 43.1764 -75.9339 267° West 413 475 28,000 -446 Descending Boston Center
Thu 01:26:02 PM 43.1692 -76.0928 266° West 419 482 28,000  Level Boston Center
Thu 01:28:26 PM 43.1397 -76.4744 264° West 426 490 28,000  Level Cleveland Center
Thu 01:29:26 PM 43.1244 -76.6319 262° West 426 490 28,000  Level Cleveland Center
Thu 01:30:26 PM 43.1106 -76.7836 263° West 421 484 28,000  Level Cleveland Center
Thu 01:31:26 PM 43.0947 -76.9408 262° West 421 484 28,000  Level Cleveland Center
Thu 01:32:26 PM 43.0831 -77.0953 264° West 421 484 28,000  Level Cleveland Center
Thu 01:33:26 PM 43.0689 -77.2522 263° West 421 484 28,000  Level Cleveland Center
Thu 01:34:26 PM 43.0542 -77.3953 262° West 421 484 28,000  Level Cleveland Center
Thu 01:35:26 PM 43.0394 -77.5522 263° West 421 484 28,000  Level Cleveland Center
Thu 01:36:26 PM 43.0247 -77.7092 263° West 421 484 28,000  Level Cleveland Center
Thu 01:37:26 PM 43.0097 -77.8689 263° West 427 491 28,000  Level Cleveland Center
Thu 01:38:26 PM 42.9925 -78.0258 262° West 427 491 28,000  Level Cleveland Center
Thu 01:39:26 PM 42.9772 -78.1825 262° West 427 491 28,000  Level Cleveland Center
Thu 01:40:26 PM 42.9617 -78.3419 262° West 427 491 28,000  Level Cleveland Center
Thu 01:41:26 PM 42.9458 -78.4958 262° West 427 491 28,000  Level Cleveland Center
Thu 01:42:26 PM 42.9297 -78.6550 262° West 427 491 28,000  Level Cleveland Center
Thu 01:43:26 PM 42.9072 -78.8144 259° West 427 491 28,000  Level Cleveland Center
Thu 01:44:26 PM 42.8844 -78.9681 259° West 427 491 28,000  Level Cleveland Center
Thu 01:45:26 PM 42.8636 -79.1244 260° West 427 491 28,000  Level Cleveland Center
Thu 01:46:26 PM 42.8406 -79.2836 259° West 427 491 28,000  Level Cleveland Center
Thu 01:47:26 PM 42.8172 -79.4397 259° West 427 491 28,000  Level Cleveland Center
Thu 01:48:26 PM 42.7936 -79.5931 258° West 427 491 28,000  Level Cleveland Center
Thu 01:49:26 PM 42.7697 -79.7517 258° West 427 491 28,000  Level Cleveland Center
Thu 01:50:26 PM 42.7500 -79.9103 260° West 427 491 28,000  Level Cleveland Center
Thu 01:51:26 PM 42.7425 -80.0942 267° West 442 509 28,000  Level Cleveland Center
Thu 01:52:26 PM 42.7347 -80.2356 266° West 437 503 28,000  Level Cleveland Center
Thu 01:53:26 PM 42.7289 -80.4053 267° West 442 509 28,000  Level Cleveland Center
Thu 01:54:26 PM 42.7208 -80.5661 266° West 442 509 28,000  Level Cleveland Center
Thu 01:55:26 PM 42.7144 -80.7358 267° West 442 509 28,000  Level Cleveland Center
Thu 01:56:26 PM 42.7056 -80.8997 266° West 442 509 28,000  Level Cleveland Center
Thu 01:57:26 PM 42.6864 -81.0606 261° West 442 509 28,000 -600 Level Cleveland Center
Thu 01:58:26 PM 42.6689 -81.2242 262° West 442 509 26,800 -1,350 Descending Cleveland Center
Thu 01:59:26 PM 42.6492 -81.3792 260° West 428 493 25,300 -1,500 Descending Cleveland Center
Thu 02:00:26 PM 42.6314 -81.5369 261° West 409 471 23,800 -1,450 Descending Cleveland Center
Thu 02:01:26 PM 42.6156 -81.6778 261° West 395 455 22,400 -1,250 Descending Cleveland Center
Thu 02:02:26 PM 42.6039 -81.7933 262° West 347 399 21,300 -1,300 Descending Cleveland Center
Thu 02:03:26 PM 42.6486 -81.8986 300° West 303 349 19,800 -1,500 Descending Cleveland Center
Thu 02:04:26 PM 42.6536 -82.0031 274° West 304 350 18,300 -1,600 Descending Cleveland Center
Thu 02:05:26 PM 42.6253 -82.1097 250° West 286 329 16,600 -1,650 Descending Cleveland Center
Thu 02:06:26 PM 42.5989 -82.2050 249° West 286 329 15,000 -1,468 Descending Cleveland Center
Thu 02:07:00 PM 42.5856 -82.2583 251° West 255 293 14,300 -1,200 Descending Cleveland Center
Thu 02:07:26 PM 42.5767 -82.2919 250° West 270 311 13,800 -960 Descending Cleveland Center
Thu 02:07:50 PM 42.5681 -82.3225 249° West 246 283 13,500 -1,000 Descending Cleveland Center
Thu 02:08:26 PM 42.5503 -82.3814 248° West 259 298 12,800 -1,075 Descending Cleveland Center
Thu 02:08:57 PM 42.5414 -82.4261 255° West 251 289 12,300 -800 Descending Cleveland Center
Thu 02:09:26 PM 42.5281 -82.4681 247° West 254 292 12,000 -197 Descending Cleveland Center
Thu 02:09:58 PM 42.5169 -82.5128 251° West 245 282 12,100  Climbing Cleveland Center
Thu 02:10:26 PM 42.5039 -82.5517 246° West 249 287 12,000  Descending Cleveland Center
Thu 02:10:53 PM 42.4886 -82.5908 242° Southwest 240 276 12,100 -600 Climbing Cleveland Center
Thu 02:11:26 PM 42.4669 -82.6267 231° Southwest 249 287 11,400 -1,279 Descending Cleveland Center
Thu 02:11:54 PM 42.4519 -82.6628 241° Southwest 235 270 10,800 -1,500 Descending Cleveland Center
Thu 02:12:26 PM 42.4303 -82.6986 231° Southwest 244 281 9,900 -1,522 Descending Cleveland Center
Thu 02:13:01 PM 42.4108 -82.7403 238° Southwest 218 251 9,100 -1,000 Descending Cleveland Center
Thu 02:13:26 PM 42.3978 -82.7650 234° Southwest 232 267 8,900 -885 Descending Cleveland Center
Thu 02:14:02 PM 42.3867 -82.8011 247° West 171 197 8,200 -1,300 Descending Cleveland Center
Thu 02:14:26 PM 42.3717 -82.8203 223° Southwest 205 236 7,600 -1,179 Descending Cleveland Center
Thu 02:14:58 PM 42.3608 -82.8508 244° Southwest 169 194 7,100 -600 Descending Cleveland Center
Thu 02:15:26 PM 42.3478 -82.8728 231° Southwest 185 213 7,000  Descending Cleveland Center
Thu 02:15:58 PM 42.3389 -82.9006 247° West 152 175 7,100  Climbing Cleveland Center
Thu 02:16:26 PM 42.3281 -82.9169 228° Southwest 161 185 7,000  Descending Cleveland Center
Thu 02:17:06 PM 42.3336 -82.9594 280° West 170 196 7,100 59 Climbing Cleveland Center
Thu 02:18:07 PM 42.3553 -83.0136 298° West 198 228 7,100  Level Cleveland Center
Thu 02:19:02 PM 42.4203 -82.9936 13° North 302 348 7,100  Level Cleveland Center
Thu 02:20:08 PM 42.5003 -82.9572 19° North 262 302 7,100  Level Cleveland Center
Thu 02:21:10 PM 42.5653 -82.9344 14° North 236 272 7,100  Level Cleveland Center
Thu 02:22:11 PM 42.5956 -82.9864 308° West 145 167 7,100 -310 Level Cleveland Center
Thu 02:23:06 PM 42.5783 -83.0194 235° Southwest 105 121 6,500 -492 Descending Cleveland Center
Thu 02:24:13 PM 42.5564 -83.0636 236° Southwest 125 144 6,100 -188 Descending Cleveland Center
Thu 02:25:14 PM 42.5347 -83.1022 233° Southwest 133 153 6,100  Level Cleveland Center
Thu 02:26:09 PM 42.5072 -83.1236 210° Southwest 120 138 6,100  Level Cleveland Center

Login

Don't have an account? Register now (free) for customized features, flight alerts, and more!